createdAt,value
2023-03-26T18:10:13.160Z,4.91
2023-03-26T18:13:08.716Z,4.81
2023-03-26T18:15:50.283Z,4.92
2023-03-26T18:18:39.380Z,4.88
2023-03-26T18:21:07.469Z,4.93
2023-03-26T18:23:44.564Z,4.87
2023-03-26T18:26:16.594Z,4.82
2023-03-26T18:28:46.089Z,4.71
2023-03-26T18:31:23.580Z,4.68
2023-03-26T18:33:54.677Z,4.78
2023-03-26T18:36:25.877Z,4.82
2023-03-26T18:38:58.189Z,4.74
2023-03-26T18:41:34.524Z,4.77
2023-03-26T18:44:02.281Z,4.64
2023-03-26T18:46:29.271Z,4.69
2023-03-26T18:48:57.089Z,4.71
2023-03-26T18:51:26.491Z,4.58
2023-03-26T18:53:59.495Z,4.53
2023-03-26T18:56:35.499Z,4.55
2023-03-26T18:59:05.456Z,4.47
2023-03-26T19:01:36.819Z,4.48
2023-03-26T19:04:08.440Z,4.59
2023-03-26T19:06:40.182Z,4.65
2023-03-26T19:09:23.763Z,4.68
2023-03-26T19:11:57.777Z,4.50
2023-03-26T19:14:25.494Z,4.59
2023-03-26T19:17:01.432Z,4.47
2023-03-26T19:19:37.523Z,4.37
2023-03-26T19:22:06.585Z,4.48
2023-03-26T19:24:34.212Z,4.47
2023-03-26T19:27:01.321Z,4.52
2023-03-26T19:29:33.116Z,4.45
2023-03-26T19:32:06.115Z,4.45
2023-03-26T19:34:38.791Z,4.49
2023-03-26T19:37:22.254Z,4.32
2023-03-26T19:39:54.592Z,4.30
2023-03-26T19:42:43.708Z,4.40
2023-03-26T19:45:18.298Z,4.34
2023-03-26T19:47:48.462Z,4.37
2023-03-26T19:50:28.330Z,4.10
2023-03-26T19:53:25.686Z,4.20
2023-03-26T19:55:56.662Z,4.35
2023-03-26T19:58:24.371Z,4.27
2023-03-26T20:00:51.161Z,4.23
2023-03-26T20:03:24.573Z,4.18
2023-03-26T20:05:52.113Z,4.29
2023-03-26T20:08:20.028Z,4.21
2023-03-26T20:10:46.936Z,4.10
2023-03-26T20:13:17.693Z,4.21
2023-03-26T20:18:45.002Z,4.06
2023-03-26T20:21:12.822Z,4.22
2023-03-26T20:23:40.893Z,4.18
2023-03-26T20:26:12.959Z,4.29
2023-03-26T20:28:47.785Z,4.08
2023-03-26T20:31:26.862Z,3.99
2023-03-26T20:33:54.312Z,3.98
2023-03-26T20:36:33.369Z,3.87
2023-03-26T20:39:08.445Z,4.03
2023-03-26T20:41:38.226Z,4.05
2023-03-26T20:44:13.925Z,4.11
2023-03-26T20:46:40.867Z,3.92
2023-03-26T20:49:07.584Z,4.00
2023-03-26T20:51:34.282Z,3.99
2023-03-26T20:54:00.937Z,3.98
2023-03-26T20:56:28.363Z,3.99
2023-03-26T20:59:10.015Z,3.91
2023-03-26T21:01:38.570Z,3.88
2023-03-26T21:04:06.376Z,3.95
2023-03-26T21:06:33.297Z,3.98
2023-03-26T21:09:00.369Z,3.82
2023-03-26T21:11:50.282Z,3.69
2023-03-26T21:14:24.904Z,3.68
2023-03-26T21:16:52.798Z,3.77
2023-03-26T21:19:20.455Z,3.81
2023-03-26T21:22:09.303Z,3.87
2023-03-26T21:24:48.336Z,3.69
2023-03-26T21:27:34.035Z,3.80
2023-03-26T21:30:01.148Z,3.67
2023-03-26T21:32:29.351Z,3.52
2023-03-26T21:34:59.176Z,3.54
2023-03-26T21:37:26.684Z,3.51
2023-03-26T21:39:53.683Z,3.57
2023-03-26T21:42:20.711Z,3.61
2023-03-26T21:44:47.851Z,3.69
2023-03-26T21:47:15.083Z,3.69
2023-03-26T21:49:42.103Z,3.61
2023-03-26T21:52:15.004Z,3.76
2023-03-26T21:54:43.417Z,3.60
2023-03-26T21:57:39.427Z,3.66
2023-03-26T22:00:23.714Z,3.47
2023-03-26T22:02:58.878Z,3.55
2023-03-26T22:05:28.554Z,3.46
2023-03-26T22:08:03.065Z,3.52
2023-03-26T22:10:31.286Z,3.62
2023-03-26T22:12:58.963Z,3.60
2023-03-26T22:15:31.395Z,3.63
2023-03-26T22:18:03.413Z,3.49
2023-03-26T22:20:30.466Z,3.51
2023-03-26T22:22:57.333Z,3.37
2023-03-26T22:25:24.314Z,3.52
2023-03-26T22:27:51.756Z,3.56
2023-03-26T22:30:20.940Z,3.47
2023-03-26T22:32:48.778Z,3.50
2023-03-26T22:35:15.814Z,3.49
2023-03-26T22:37:42.881Z,3.62
2023-03-26T22:40:13.074Z,3.48
2023-03-26T22:42:40.271Z,3.53
2023-03-26T22:45:07.920Z,3.56
2023-03-26T22:47:35.604Z,3.38
2023-03-26T22:50:03.468Z,3.49
2023-03-26T22:52:30.799Z,3.47
2023-03-26T22:54:57.538Z,3.47
2023-03-26T22:57:24.516Z,3.29
2023-03-26T22:59:52.247Z,3.23
2023-03-26T23:02:19.906Z,3.44
2023-03-26T23:04:47.950Z,3.47
2023-03-26T23:07:15.051Z,3.47
2023-03-26T23:09:41.884Z,3.33
2023-03-26T23:12:08.893Z,3.22
2023-03-26T23:14:36.464Z,3.32
2023-03-26T23:17:03.829Z,3.35
2023-03-26T23:19:30.625Z,3.29
2023-03-26T23:21:57.629Z,3.17
2023-03-26T23:24:26.648Z,3.06
2023-03-26T23:26:53.409Z,2.95
2023-03-26T23:29:20.493Z,3.07
2023-03-26T23:31:47.669Z,3.09
2023-03-26T23:34:15.476Z,3.14
2023-03-26T23:36:42.509Z,3.17
2023-03-26T23:39:09.439Z,3.12
2023-03-26T23:41:36.931Z,3.20
2023-03-26T23:44:04.108Z,3.19
2023-03-26T23:46:33.229Z,3.22
2023-03-26T23:49:02.646Z,3.07
2023-03-26T23:51:30.454Z,3.13
2023-03-26T23:53:57.425Z,3.14
2023-03-26T23:56:24.253Z,3.07
2023-03-26T23:58:51.096Z,3.09
